createdAt,value
2019-05-19T00:01:00.674Z,1.30
2019-05-19T00:03:28.963Z,1.43
2019-05-19T00:05:57.234Z,1.30
2019-05-19T00:08:25.495Z,1.20
2019-05-19T00:10:53.779Z,1.40
2019-05-19T00:13:22.693Z,1.30
2019-05-19T00:15:50.975Z,1.20
2019-05-19T00:18:19.279Z,1.23
2019-05-19T00:20:47.539Z,1.20
2019-05-19T00:23:15.826Z,1.40
2019-05-19T00:25:44.352Z,1.30
2019-05-19T00:28:12.705Z,1.27
2019-05-19T00:30:40.950Z,1.27
2019-05-19T00:33:09.218Z,1.30
2019-05-19T00:35:37.487Z,1.27
2019-05-19T00:38:05.748Z,1.10
2019-05-19T00:40:34.038Z,1.50
2019-05-19T00:43:02.991Z,1.40
2019-05-19T00:45:31.327Z,1.30
2019-05-19T00:47:59.597Z,1.20
2019-05-19T00:50:27.871Z,1.20
2019-05-19T00:52:56.602Z,1.20
2019-05-19T00:55:24.872Z,1.27
2019-05-19T00:57:53.123Z,1.53
2019-05-19T01:00:21.556Z,1.40
2019-05-19T01:02:49.823Z,1.13
2019-05-19T01:05:20.577Z,1.17
2019-05-19T01:07:48.066Z,1.30
2019-05-19T01:10:16.339Z,1.10
2019-05-19T01:12:44.583Z,1.17
2019-05-19T01:15:12.851Z,1.30
2019-05-19T01:17:41.107Z,1.30
2019-05-19T01:20:09.541Z,1.50
2019-05-19T01:22:37.961Z,1.30
2019-05-19T01:25:06.826Z,1.10
2019-05-19T01:27:35.083Z,1.20
2019-05-19T01:30:07.778Z,1.30
2019-05-19T01:32:36.038Z,1.37
2019-05-19T01:35:04.576Z,1.30
2019-05-19T01:37:32.869Z,1.03
2019-05-19T01:40:01.191Z,1.30
2019-05-19T01:42:29.440Z,1.23
2019-05-19T01:44:57.711Z,1.50
2019-05-19T01:47:26.017Z,1.23
2019-05-19T01:49:54.285Z,1.30
2019-05-19T01:52:22.610Z,1.43
2019-05-19T01:54:51.126Z,1.20
2019-05-19T01:57:19.387Z,1.27
2019-05-19T01:59:47.677Z,1.30
2019-05-19T02:02:15.923Z,1.20
2019-05-19T02:04:44.188Z,1.37
2019-05-19T02:07:12.442Z,1.57
2019-05-19T02:09:40.723Z,1.40
2019-05-19T02:12:09.098Z,1.17
2019-05-19T02:14:37.355Z,1.30
2019-05-19T02:17:05.622Z,1.40
2019-05-19T02:19:33.874Z,1.20
2019-05-19T02:22:02.144Z,1.27
2019-05-19T02:24:30.415Z,1.30
2019-05-19T02:26:58.743Z,1.30
2019-05-19T02:29:26.995Z,1.30
2019-05-19T02:31:55.261Z,1.40
2019-05-19T02:34:23.538Z,1.40
2019-05-19T02:36:51.876Z,1.20
2019-05-19T02:39:23.366Z,1.30
2019-05-19T02:41:51.631Z,1.30
2019-05-19T02:44:20.205Z,1.17
2019-05-19T02:46:48.520Z,1.40
2019-05-19T02:49:16.763Z,1.20
2019-05-19T02:51:46.567Z,1.40
2019-05-19T02:54:14.899Z,1.20
2019-05-19T02:56:43.804Z,1.30
2019-05-19T02:59:12.055Z,1.40
2019-05-19T03:01:58.439Z,1.20
2019-05-19T03:04:26.755Z,1.20
2019-05-19T03:06:55.024Z,1.10
2019-05-19T03:09:23.856Z,1.40
2019-05-19T03:11:52.119Z,1.47
2019-05-19T03:14:20.663Z,1.17
2019-05-19T03:16:49.562Z,1.33
2019-05-19T03:19:18.398Z,1.20
2019-05-19T03:21:46.759Z,1.50
2019-05-19T03:24:15.287Z,1.47
2019-05-19T03:26:43.556Z,1.40
2019-05-19T03:29:13.452Z,1.13
2019-05-19T03:31:55.616Z,1.20
2019-05-19T03:34:25.519Z,1.10
2019-05-19T03:36:53.867Z,1.23
2019-05-19T03:39:22.129Z,1.43
2019-05-19T03:41:50.384Z,1.20
2019-05-19T03:44:18.647Z,1.10
2019-05-19T03:46:47.184Z,1.10
2019-05-19T03:49:15.703Z,1.30
2019-05-19T03:51:43.959Z,1.20
2019-05-19T03:54:12.299Z,1.17
2019-05-19T03:56:40.555Z,1.20
2019-05-19T03:59:08.824Z,1.33
2019-05-19T04:01:37.076Z,1.10
2019-05-19T04:04:05.712Z,1.20
2019-05-19T04:06:33.975Z,1.33
2019-05-19T04:09:02.312Z,1.20
2019-05-19T04:11:30.571Z,1.30
2019-05-19T04:13:58.835Z,1.20
2019-05-19T04:16:27.099Z,1.30
2019-05-19T04:18:55.676Z,1.10
2019-05-19T04:21:23.932Z,1.13
2019-05-19T04:23:52.217Z,1.20
2019-05-19T04:26:20.545Z,1.10
2019-05-19T04:28:49.080Z,1.13
2019-05-19T04:31:17.354Z,1.17
2019-05-19T04:33:45.691Z,1.20
2019-05-19T04:36:13.948Z,1.40
2019-05-19T04:38:42.212Z,1.30
2019-05-19T04:41:10.467Z,1.20
2019-05-19T04:43:38.746Z,1.20
2019-05-19T04:46:07.070Z,1.20
2019-05-19T04:48:35.350Z,1.20
2019-05-19T04:51:04.268Z,1.47
2019-05-19T04:53:32.602Z,1.07
2019-05-19T04:56:00.875Z,1.23
2019-05-19T04:58:29.127Z,1.20
2019-05-19T05:00:57.399Z,1.30
2019-05-19T05:03:25.647Z,1.50
2019-05-19T05:05:53.915Z,1.37
2019-05-19T05:08:29.483Z,1.37
2019-05-19T05:10:52.167Z,1.30
2019-05-19T05:13:21.095Z,1.10
2019-05-19T05:15:49.354Z,1.10
2019-05-19T05:18:17.616Z,1.30
2019-05-19T05:20:45.889Z,1.20
2019-05-19T05:23:14.410Z,1.30
2019-05-19T05:25:42.676Z,1.40
2019-05-19T05:28:10.936Z,1.30
2019-05-19T05:30:39.209Z,1.20
2019-05-19T05:33:08.199Z,1.20
2019-05-19T05:35:36.466Z,1.00
2019-05-19T05:38:04.726Z,1.33
2019-05-19T05:40:32.990Z,1.40
2019-05-19T05:43:01.267Z,1.30
2019-05-19T05:45:30.304Z,1.40
2019-05-19T05:47:58.612Z,1.10
2019-05-19T05:50:26.942Z,1.10
2019-05-19T05:52:55.199Z,1.20
2019-05-19T05:55:24.180Z,1.20
2019-05-19T05:57:52.426Z,1.30
2019-05-19T06:00:21.101Z,1.20
2019-05-19T06:02:49.371Z,1.03
2019-05-19T06:05:17.622Z,1.20
2019-05-19T06:07:45.886Z,1.20
2019-05-19T06:10:14.560Z,1.20
2019-05-19T06:12:42.824Z,0.90
2019-05-19T06:15:11.646Z,1.27
2019-05-19T06:17:40.762Z,1.20
2019-05-19T06:20:09.247Z,1.40
2019-05-19T06:22:53.154Z,1.00
2019-05-19T06:25:07.671Z,1.27
2019-05-19T06:27:36.110Z,1.30
2019-05-19T06:30:08.476Z,1.10
2019-05-19T06:32:37.133Z,1.20
2019-05-19T06:35:05.414Z,1.30
2019-05-19T06:37:33.739Z,1.20
2019-05-19T06:40:02.645Z,1.30
2019-05-19T06:42:31.592Z,1.10
2019-05-19T06:44:59.835Z,1.03
2019-05-19T06:47:28.363Z,1.20
2019-05-19T06:49:56.614Z,1.30
2019-05-19T06:52:24.888Z,1.20
2019-05-19T06:54:53.148Z,1.07
2019-05-19T06:57:21.415Z,1.30
2019-05-19T06:59:49.658Z,1.13
2019-05-19T07:02:17.931Z,1.10
2019-05-19T07:04:46.195Z,1.13
2019-05-19T07:07:15.026Z,1.37
2019-05-19T07:09:57.546Z,1.00
2019-05-19T07:12:13.281Z,1.27
2019-05-19T07:14:41.598Z,1.03
2019-05-19T07:17:10.223Z,1.10
2019-05-19T07:19:38.474Z,1.30
2019-05-19T07:22:06.740Z,1.20
2019-05-19T07:24:35.359Z,1.10
2019-05-19T07:27:03.615Z,1.30
2019-05-19T07:29:32.455Z,1.10
2019-05-19T07:32:00.726Z,1.30
2019-05-19T07:34:29.060Z,1.10
2019-05-19T07:36:57.883Z,1.40
2019-05-19T07:39:26.727Z,1.20
2019-05-19T07:41:54.982Z,1.00
2019-05-19T07:44:23.252Z,1.17
2019-05-19T07:46:51.503Z,1.10
2019-05-19T07:49:19.777Z,1.30
2019-05-19T07:51:48.030Z,1.00
2019-05-19T07:54:16.375Z,1.17
2019-05-19T07:56:44.639Z,1.07
2019-05-19T07:59:13.160Z,1.20
2019-05-19T08:01:41.415Z,1.10
2019-05-19T08:04:09.683Z,1.10
2019-05-19T08:06:37.954Z,1.10
2019-05-19T08:09:06.594Z,1.33
2019-05-19T08:11:35.110Z,1.23
2019-05-19T08:14:03.456Z,1.10
2019-05-19T08:16:31.719Z,1.20
2019-05-19T08:18:59.995Z,1.10
2019-05-19T08:21:28.250Z,1.07
2019-05-19T08:24:00.342Z,1.20
2019-05-19T08:26:26.502Z,1.00
2019-05-19T08:28:55.331Z,1.00
2019-05-19T08:31:23.598Z,1.20
2019-05-19T08:33:51.889Z,1.10
2019-05-19T08:36:20.269Z,1.13
2019-05-19T08:38:48.588Z,1.33
2019-05-19T08:41:16.858Z,1.30
2019-05-19T08:43:45.583Z,1.10
2019-05-19T08:46:13.847Z,1.23
2019-05-19T08:48:42.099Z,1.10
2019-05-19T08:51:10.366Z,1.10
2019-05-19T08:53:38.626Z,1.13
2019-05-19T08:56:06.885Z,1.20
2019-05-19T08:58:35.143Z,1.00
2019-05-19T09:01:03.411Z,1.00
2019-05-19T09:03:31.678Z,1.20
2019-05-19T09:05:59.939Z,0.93
2019-05-19T09:08:28.762Z,1.03
2019-05-19T09:10:57.030Z,1.17
2019-05-19T09:13:25.342Z,0.90
2019-05-19T09:15:53.638Z,1.00
2019-05-19T09:18:21.909Z,1.13
2019-05-19T09:20:50.183Z,1.00
2019-05-19T09:23:18.427Z,1.20
2019-05-19T09:25:46.694Z,1.00
2019-05-19T09:28:14.959Z,1.00
2019-05-19T09:30:43.236Z,1.10
2019-05-19T09:33:11.504Z,1.00
2019-05-19T09:35:39.834Z,1.13
2019-05-19T09:38:08.200Z,1.20
2019-05-19T09:40:36.476Z,1.10
2019-05-19T09:43:05.152Z,1.20
2019-05-19T09:45:33.588Z,1.10
2019-05-19T09:48:01.933Z,1.10
2019-05-19T09:50:30.561Z,1.23
2019-05-19T09:52:58.833Z,1.20
2019-05-19T09:55:27.101Z,1.20
2019-05-19T09:57:55.382Z,1.10
2019-05-19T10:00:23.641Z,1.10
2019-05-19T10:02:51.989Z,1.13
2019-05-19T10:05:20.249Z,1.00
2019-05-19T10:07:48.515Z,1.10
2019-05-19T10:10:20.037Z,1.13
2019-05-19T10:12:48.311Z,0.93
2019-05-19T10:15:16.558Z,0.93
2019-05-19T10:17:44.853Z,1.10
2019-05-19T10:20:13.103Z,1.37
2019-05-19T10:22:41.367Z,1.23
2019-05-19T10:25:21.843Z,1.20
2019-05-19T10:27:39.690Z,1.00
2019-05-19T10:30:08.045Z,0.90
2019-05-19T10:32:36.317Z,1.07
2019-05-19T10:35:05.215Z,0.97
2019-05-19T10:37:33.491Z,1.17
2019-05-19T10:40:01.743Z,1.10
2019-05-19T10:42:30.002Z,1.03
2019-05-19T10:44:58.263Z,1.20
2019-05-19T10:47:26.530Z,1.20
2019-05-19T10:49:54.800Z,1.00
2019-05-19T10:52:23.080Z,1.23
2019-05-19T10:54:51.338Z,1.07
2019-05-19T10:57:19.602Z,1.20
2019-05-19T10:59:47.859Z,0.97
2019-05-19T11:02:16.118Z,1.10
2019-05-19T11:04:44.378Z,1.00
2019-05-19T11:07:12.630Z,1.20
2019-05-19T11:09:40.904Z,1.10
2019-05-19T11:12:09.154Z,1.00
2019-05-19T11:14:37.428Z,1.00
2019-05-19T11:17:05.678Z,0.87
2019-05-19T11:19:34.519Z,0.90
2019-05-19T11:22:02.768Z,0.97
2019-05-19T11:24:31.043Z,1.10
2019-05-19T11:26:59.299Z,1.00
2019-05-19T11:29:27.569Z,1.00
2019-05-19T11:31:55.823Z,1.10
2019-05-19T11:34:24.095Z,1.00
2019-05-19T11:36:52.354Z,1.03
2019-05-19T11:39:21.192Z,1.00
2019-05-19T11:41:49.442Z,1.10
2019-05-19T11:44:17.708Z,0.90
2019-05-19T11:46:45.963Z,1.00
2019-05-19T11:49:14.226Z,0.87
2019-05-19T11:51:42.487Z,1.10
2019-05-19T11:54:10.769Z,1.07
2019-05-19T11:56:39.022Z,1.07
2019-05-19T11:59:07.286Z,1.20
2019-05-19T12:01:35.542Z,0.97
2019-05-19T12:04:04.504Z,1.00
2019-05-19T12:06:39.400Z,0.97
2019-05-19T12:09:04.521Z,1.10
2019-05-19T12:11:32.775Z,0.90
2019-05-19T12:14:01.032Z,0.90
2019-05-19T12:16:29.307Z,1.00
2019-05-19T12:18:57.714Z,0.90
2019-05-19T12:21:26.015Z,0.90
2019-05-19T12:23:54.267Z,1.00
2019-05-19T12:26:23.712Z,1.10
2019-05-19T12:28:52.187Z,1.00
2019-05-19T12:31:20.460Z,1.00
2019-05-19T12:33:52.135Z,0.83
2019-05-19T12:36:18.728Z,0.90
2019-05-19T12:38:46.978Z,0.90
2019-05-19T12:41:16.083Z,0.97
2019-05-19T12:43:44.334Z,1.00
2019-05-19T12:46:16.553Z,1.10
2019-05-19T12:48:43.195Z,1.07
2019-05-19T12:51:11.550Z,1.00
2019-05-19T12:53:39.858Z,0.90
2019-05-19T12:56:08.122Z,1.00
2019-05-19T12:58:36.382Z,0.90
2019-05-19T13:01:04.647Z,0.93
2019-05-19T13:03:32.909Z,0.90
2019-05-19T13:06:01.170Z,0.93
2019-05-19T13:08:30.013Z,1.07
2019-05-19T13:10:58.335Z,1.00
2019-05-19T13:13:26.617Z,1.13
2019-05-19T13:15:54.943Z,0.80
2019-05-19T13:18:23.882Z,0.90
2019-05-19T13:20:52.143Z,1.17
2019-05-19T13:23:20.415Z,1.00
2019-05-19T13:25:48.671Z,0.90
2019-05-19T13:28:16.941Z,1.00
2019-05-19T13:30:45.194Z,1.00
2019-05-19T13:33:13.467Z,1.00
2019-05-19T13:35:41.734Z,1.10
2019-05-19T13:38:09.983Z,1.00
2019-05-19T13:40:38.245Z,1.17
2019-05-19T13:43:06.521Z,0.90
2019-05-19T13:45:34.774Z,0.90
2019-05-19T13:48:03.045Z,1.17
2019-05-19T13:50:31.311Z,1.10
2019-05-19T13:52:59.566Z,0.80
2019-05-19T13:55:27.823Z,1.00
2019-05-19T13:57:56.090Z,1.00
2019-05-19T14:00:24.346Z,1.00
2019-05-19T14:02:52.950Z,1.00
2019-05-19T14:05:21.207Z,1.20
2019-05-19T14:07:49.487Z,1.27
2019-05-19T14:10:17.747Z,1.00
2019-05-19T14:12:45.995Z,1.20
2019-05-19T14:15:14.267Z,1.23
2019-05-19T14:17:42.519Z,1.20
2019-05-19T14:20:10.787Z,0.83
2019-05-19T14:22:39.049Z,1.27
2019-05-19T14:25:07.792Z,0.90
2019-05-19T14:27:36.034Z,0.93
2019-05-19T14:30:05.942Z,0.90
2019-05-19T14:32:34.194Z,1.00
2019-05-19T14:35:02.564Z,1.10
2019-05-19T14:37:30.906Z,1.10
2019-05-19T14:39:59.431Z,1.10
2019-05-19T14:42:45.838Z,1.00
2019-05-19T14:45:14.171Z,0.90
2019-05-19T14:47:42.435Z,1.17
2019-05-19T14:50:10.692Z,1.20
2019-05-19T14:52:39.514Z,1.03
2019-05-19T14:55:07.791Z,1.00
2019-05-19T14:57:44.488Z,1.00
2019-05-19T15:00:08.755Z,1.03
2019-05-19T15:02:37.014Z,1.00
2019-05-19T15:05:06.651Z,1.00
2019-05-19T15:07:34.907Z,1.00
2019-05-19T15:10:03.805Z,1.20
2019-05-19T15:12:32.062Z,1.10
2019-05-19T15:15:00.344Z,0.90
2019-05-19T15:17:28.606Z,1.00
2019-05-19T15:19:56.859Z,1.10
2019-05-19T15:22:25.132Z,1.03
2019-05-19T15:24:53.400Z,1.10
2019-05-19T15:27:21.671Z,1.00
2019-05-19T15:29:49.926Z,1.10
2019-05-19T15:32:18.186Z,1.20
2019-05-19T15:34:46.447Z,1.00
2019-05-19T15:37:14.710Z,1.10
2019-05-19T15:39:42.970Z,1.10
2019-05-19T15:42:11.923Z,1.20
2019-05-19T15:44:40.180Z,1.10
2019-05-19T15:47:08.451Z,1.20
2019-05-19T15:49:36.711Z,1.30
2019-05-19T15:52:06.418Z,1.00
2019-05-19T15:54:34.996Z,1.10
2019-05-19T15:57:03.835Z,1.03
2019-05-19T15:59:32.095Z,1.10
2019-05-19T16:02:00.379Z,0.97
2019-05-19T16:04:28.713Z,1.20
2019-05-19T16:06:57.053Z,0.90
2019-05-19T16:09:25.302Z,1.03
2019-05-19T16:11:53.573Z,0.93
2019-05-19T16:14:21.820Z,1.30
2019-05-19T16:16:50.087Z,1.30
2019-05-19T16:19:18.338Z,1.20
2019-05-19T16:21:46.602Z,1.00
2019-05-19T16:24:14.868Z,1.20
2019-05-19T16:26:43.131Z,1.00
2019-05-19T16:29:11.388Z,1.00
2019-05-19T16:31:39.671Z,1.17
2019-05-19T16:34:07.943Z,1.30
2019-05-19T16:36:36.766Z,1.07
2019-05-19T16:39:06.980Z,1.20
2019-05-19T16:41:35.241Z,1.00
2019-05-19T16:44:03.591Z,1.20
2019-05-19T16:46:32.415Z,1.00
2019-05-19T16:49:00.678Z,1.20
2019-05-19T16:51:30.471Z,1.10
2019-05-19T16:54:03.718Z,1.17
2019-05-19T16:56:31.979Z,1.17
2019-05-19T16:59:00.247Z,1.10
2019-05-19T17:01:29.088Z,1.00
2019-05-19T17:03:57.523Z,1.20
2019-05-19T17:06:25.786Z,1.10
2019-05-19T17:08:54.051Z,1.03
2019-05-19T17:11:22.303Z,1.50
2019-05-19T17:13:50.739Z,1.20
2019-05-19T17:16:18.991Z,1.00
2019-05-19T17:18:47.263Z,1.10
2019-05-19T17:21:15.523Z,1.10
2019-05-19T17:23:43.786Z,1.20
2019-05-19T17:26:13.284Z,1.00
2019-05-19T17:28:41.567Z,1.10
2019-05-19T17:31:09.895Z,1.30
2019-05-19T17:33:38.831Z,1.20
2019-05-19T17:36:07.090Z,1.10
2019-05-19T17:38:35.919Z,1.20
2019-05-19T17:41:04.243Z,1.10
2019-05-19T17:43:32.515Z,1.10
2019-05-19T17:46:01.340Z,1.10
2019-05-19T17:48:29.683Z,1.00
2019-05-19T17:50:57.950Z,1.20
2019-05-19T17:53:26.211Z,1.00
2019-05-19T17:55:54.642Z,1.10
2019-05-19T17:58:23.535Z,1.03
2019-05-19T18:00:51.802Z,1.10
2019-05-19T18:03:20.059Z,1.10
2019-05-19T18:05:48.331Z,1.20
2019-05-19T18:08:16.581Z,1.10
2019-05-19T18:10:44.855Z,1.03
2019-05-19T18:13:13.106Z,1.20
2019-05-19T18:15:41.376Z,1.00
2019-05-19T18:18:09.632Z,1.00
2019-05-19T18:20:37.903Z,1.33
2019-05-19T18:23:06.164Z,1.20
2019-05-19T18:25:35.028Z,1.20
2019-05-19T18:28:05.018Z,1.10
2019-05-19T18:30:33.291Z,1.10
2019-05-19T18:33:01.538Z,1.30
2019-05-19T18:35:29.804Z,1.20
2019-05-19T18:37:58.195Z,1.27
2019-05-19T18:40:26.459Z,1.17
2019-05-19T18:42:54.712Z,1.20
2019-05-19T18:45:22.980Z,1.20
2019-05-19T18:47:51.238Z,1.23
2019-05-19T18:50:19.491Z,1.17
2019-05-19T18:52:48.043Z,1.00
2019-05-19T18:55:16.295Z,1.30
2019-05-19T18:57:44.563Z,1.00
2019-05-19T19:00:12.843Z,1.20
2019-05-19T19:02:42.342Z,1.40
2019-05-19T19:05:10.603Z,1.20
2019-05-19T19:07:49.603Z,1.30
2019-05-19T19:10:18.531Z,1.00
2019-05-19T19:13:06.223Z,1.30
2019-05-19T19:15:35.051Z,1.30
2019-05-19T19:18:03.319Z,1.73
2019-05-19T19:20:31.647Z,1.30
2019-05-19T19:22:59.925Z,1.20
2019-05-19T19:25:28.347Z,1.10
2019-05-19T19:27:56.618Z,1.10
2019-05-19T19:30:26.525Z,1.40
2019-05-19T19:32:55.023Z,1.00
2019-05-19T19:35:23.291Z,1.10
2019-05-19T19:37:51.631Z,1.10
2019-05-19T19:40:30.067Z,1.20
2019-05-19T19:42:59.271Z,1.30
2019-05-19T19:45:27.615Z,1.20
2019-05-19T19:47:55.876Z,1.00
2019-05-19T19:50:24.127Z,1.30
2019-05-19T19:52:52.400Z,1.17
2019-05-19T19:55:20.651Z,1.10
2019-05-19T19:57:48.914Z,1.10
2019-05-19T20:00:39.815Z,1.10
2019-05-19T20:03:08.222Z,1.30
2019-05-19T20:05:36.585Z,1.13
2019-05-19T20:08:05.823Z,1.07
2019-05-19T20:10:35.076Z,1.20
2019-05-19T20:13:03.479Z,1.20
2019-05-19T20:15:31.844Z,1.07
2019-05-19T20:18:00.213Z,1.17
2019-05-19T20:20:28.510Z,0.90
2019-05-19T20:22:56.836Z,1.07
2019-05-19T20:25:25.680Z,1.00
2019-05-19T20:27:53.954Z,1.10
2019-05-19T20:30:35.234Z,1.10
2019-05-19T20:32:52.935Z,1.10
2019-05-19T20:35:21.192Z,1.10
2019-05-19T20:37:50.023Z,1.17
2019-05-19T20:40:18.293Z,1.03
2019-05-19T20:42:46.546Z,1.43
2019-05-19T20:45:14.822Z,1.40
2019-05-19T20:47:43.079Z,1.30
2019-05-19T20:50:11.523Z,1.10
2019-05-19T20:52:39.851Z,1.20
2019-05-19T20:55:08.115Z,1.10
2019-05-19T20:57:37.047Z,1.20
2019-05-19T21:00:06.760Z,1.20
2019-05-19T21:02:35.583Z,1.00
2019-05-19T21:05:04.021Z,1.00
2019-05-19T21:07:32.631Z,1.17
2019-05-19T21:10:00.966Z,1.20
2019-05-19T21:12:30.096Z,1.20
2019-05-19T21:14:58.362Z,1.10
2019-05-19T21:17:26.619Z,1.10
2019-05-19T21:19:54.890Z,1.30
2019-05-19T21:22:23.143Z,1.30
2019-05-19T21:24:51.415Z,1.30
2019-05-19T21:27:19.679Z,2.08
2019-05-19T21:29:48.623Z,1.50
2019-05-19T21:32:16.890Z,1.90
2019-05-19T21:34:45.234Z,1.77
2019-05-19T21:37:13.955Z,1.93
2019-05-19T21:39:42.223Z,1.80
2019-05-19T21:42:10.485Z,1.80
2019-05-19T21:44:38.749Z,1.90
2019-05-19T21:47:26.445Z,2.03
2019-05-19T21:49:54.782Z,1.47
2019-05-19T21:52:23.612Z,1.53
2019-05-19T21:54:51.874Z,1.80
2019-05-19T21:57:20.207Z,1.83
2019-05-19T21:59:48.482Z,2.00
2019-05-19T22:02:16.739Z,1.37
2019-05-19T22:04:45.118Z,1.50
2019-05-19T22:07:33.580Z,1.70
2019-05-19T22:10:01.870Z,1.40
2019-05-19T22:12:30.198Z,1.40
2019-05-19T22:14:58.465Z,1.10
2019-05-19T22:17:26.735Z,1.60
2019-05-19T22:19:54.993Z,1.40
2019-05-19T22:22:23.254Z,1.57
2019-05-19T22:24:51.511Z,1.43
2019-05-19T22:27:19.779Z,1.67
2019-05-19T22:29:48.040Z,1.47
2019-05-19T22:32:16.317Z,1.53
2019-05-19T22:34:44.566Z,1.30
2019-05-19T22:37:13.514Z,1.57
2019-05-19T22:39:41.794Z,1.50
2019-05-19T22:42:10.643Z,2.13
2019-05-19T22:44:38.895Z,1.40
2019-05-19T22:47:07.159Z,1.37
2019-05-19T22:49:35.433Z,1.30
2019-05-19T22:52:03.767Z,1.30
2019-05-19T22:54:33.925Z,1.40
2019-05-19T22:57:02.266Z,1.70
2019-05-19T22:59:30.522Z,1.70
2019-05-19T23:01:58.787Z,1.47
2019-05-19T23:04:27.047Z,1.60
2019-05-19T23:06:55.612Z,1.67
2019-05-19T23:09:23.936Z,1.50
2019-05-19T23:11:52.213Z,1.40
2019-05-19T23:14:20.553Z,1.40
2019-05-19T23:16:49.728Z,1.90
2019-05-19T23:19:17.995Z,1.63
2019-05-19T23:21:46.259Z,1.30
2019-05-19T23:24:14.530Z,1.70
2019-05-19T23:26:42.795Z,1.60
2019-05-19T23:29:11.160Z,1.60
2019-05-19T23:31:39.429Z,1.57
2019-05-19T23:34:07.683Z,1.40
2019-05-19T23:36:36.711Z,1.90
2019-05-19T23:39:06.250Z,1.40
2019-05-19T23:41:34.501Z,1.70
2019-05-19T23:44:02.774Z,1.50
2019-05-19T23:46:31.028Z,1.60
2019-05-19T23:48:59.299Z,1.43
2019-05-19T23:51:28.222Z,1.70
2019-05-19T23:53:56.493Z,1.67
2019-05-19T23:56:25.356Z,1.60
2019-05-19T23:58:53.627Z,1.47
